Time;durP1;ratioP1;P1;durP2;ratioP2;P2;SDS_P1;SDS_P2;PMS_P1;PMS_P2;Temp;Humidity;BMP_temperature;BMP_pressure;BME280_temperature;BME280_humidity;BME280_pressure;Samples;Min_cycle;Max_cycle;Signal;HPM_P1;HPM_P2
2022/03/31 00:02:10;;;;;;;11.53;7.87;;;;;;;;;;5032099;28;20025;-65
2022/03/31 00:04:40;;;;;;;9.97;5.63;;;;;;;;;;5033283;28;20032;-65
2022/03/31 00:07:06;;;;;;;10.63;6.67;;;;;;;;;;5023999;28;20118;-64
2022/03/31 00:09:32;;;;;;;11.73;6.10;;;;;;;;;;5053697;22;20425;-69
2022/03/31 00:11:59;;;;;;;10.90;6.80;;;;;;;;;;5046519;28;20026;-71
2022/03/31 00:14:25;;;;;;;10.93;6.80;;;;;;;;;;5050999;28;20025;-70
2022/03/31 00:16:51;;;;;;;12.67;7.23;;;;;;;;;;5052028;28;20036;-70
2022/03/31 00:19:17;;;;;;;10.73;6.90;;;;;;;;;;5058435;28;20480;-69
2022/03/31 00:21:43;;;;;;;9.87;6.80;;;;;;;;;;5057627;28;20504;-70
2022/03/31 00:24:09;;;;;;;12.60;6.93;;;;;;;;;;5050689;28;20025;-70
2022/03/31 00:26:35;;;;;;;10.07;6.43;;;;;;;;;;5052061;28;20056;-69
2022/03/31 00:29:02;;;;;;;11.23;6.77;;;;;;;;;;5054843;28;20052;-69
2022/03/31 00:31:28;;;;;;;10.87;6.77;;;;;;;;;;5052275;28;20025;-68
2022/03/31 00:33:53;;;;;;;10.17;6.20;;;;;;;;;;5051693;28;20090;-69
2022/03/31 00:36:19;;;;;;;11.33;6.07;;;;;;;;;;5051551;28;20029;-69
2022/03/31 00:39:28;;;;;;;9.93;5.90;;;;;;;;;;5050992;28;20033;-69
2022/03/31 00:41:36;;;;;;;11.43;6.43;;;;;;;;;;5046467;28;20033;-70
2022/03/31 00:44:02;;;;;;;12.70;6.70;;;;;;;;;;5048125;28;20044;-69
2022/03/31 00:46:28;;;;;;;10.20;6.63;;;;;;;;;;5051917;28;20465;-69
2022/03/31 00:48:54;;;;;;;10.87;6.80;;;;;;;;;;5050337;28;20036;-70
2022/03/31 00:51:20;;;;;;;12.63;7.23;;;;;;;;;;5051599;28;20029;-69
2022/03/31 00:53:46;;;;;;;12.53;6.20;;;;;;;;;;5050936;28;20064;-70
2022/03/31 00:56:12;;;;;;;9.93;6.30;;;;;;;;;;5052139;28;20404;-70
2022/03/31 00:58:38;;;;;;;12.03;7.23;;;;;;;;;;5052639;28;20083;-71
2022/03/31 01:01:04;;;;;;;10.93;5.80;;;;;;;;;;5044381;28;20091;-71
2022/03/31 01:03:31;;;;;;;10.87;6.37;;;;;;;;;;5049566;28;20029;-70
2022/03/31 01:05:57;;;;;;;13.50;6.80;;;;;;;;;;5049940;28;20040;-70
2022/03/31 01:08:23;;;;;;;10.03;6.03;;;;;;;;;;5051952;28;20036;-71
2022/03/31 01:10:52;;;;;;;9.97;7.20;;;;;;;;;;5049380;28;20434;-70
2022/03/31 01:13:18;;;;;;;9.27;6.23;;;;;;;;;;5049824;28;20025;-70
2022/03/31 01:15:44;;;;;;;9.50;6.73;;;;;;;;;;5051449;28;20546;-71
2022/03/31 01:18:10;;;;;;;9.77;6.40;;;;;;;;;;5055386;28;20025;-70
2022/03/31 01:20:36;;;;;;;10.27;6.73;;;;;;;;;;5061705;28;20120;-70
2022/03/31 01:23:03;;;;;;;11.10;6.80;;;;;;;;;;5056979;28;20041;-70
2022/03/31 01:25:29;;;;;;;10.10;6.37;;;;;;;;;;5050915;28;20025;-70
2022/03/31 01:27:55;;;;;;;11.70;6.60;;;;;;;;;;5050866;28;20033;-71
2022/03/31 01:30:22;;;;;;;8.50;5.50;;;;;;;;;;5051901;28;20460;-70
2022/03/31 01:32:49;;;;;;;11.30;6.00;;;;;;;;;;5054194;28;20527;-70
2022/03/31 01:35:15;;;;;;;7.40;4.20;;;;;;;;;;5057921;28;20024;-70
2022/03/31 01:37:41;;;;;;;9.67;6.20;;;;;;;;;;5054955;28;20047;-70
2022/03/31 01:40:08;;;;;;;10.30;5.67;;;;;;;;;;5056005;28;20103;-70
2022/03/31 01:42:34;;;;;;;9.13;5.40;;;;;;;;;;5058771;28;20027;-70
2022/03/31 01:45:00;;;;;;;7.47;5.33;;;;;;;;;;5052908;28;20100;-70
2022/03/31 01:47:26;;;;;;;11.67;6.03;;;;;;;;;;5049807;28;20103;-69
2022/03/31 01:49:52;;;;;;;8.13;5.37;;;;;;;;;;5045836;28;20104;-69
2022/03/31 01:52:18;;;;;;;9.47;6.00;;;;;;;;;;5049472;28;20066;-69
2022/03/31 01:54:44;;;;;;;11.47;5.50;;;;;;;;;;5051237;28;20098;-70
2022/03/31 01:57:12;;;;;;;7.33;4.00;;;;;;;;;;5049892;28;20492;-69
2022/03/31 01:59:40;;;;;;;9.30;5.67;;;;;;;;;;5051864;28;20432;-69
2022/03/31 02:02:07;;;;;;;10.70;6.23;;;;;;;;;;5049897;28;20032;-69
2022/03/31 02:04:32;;;;;;;9.97;5.60;;;;;;;;;;5048853;28;20064;-69
2022/03/31 02:06:59;;;;;;;9.53;5.53;;;;;;;;;;5046170;28;20456;-69
2022/03/31 02:09:25;;;;;;;10.30;5.63;;;;;;;;;;5050268;28;20028;-69
2022/03/31 02:11:52;;;;;;;8.17;5.33;;;;;;;;;;5048188;28;20090;-69
2022/03/31 02:14:19;;;;;;;9.07;5.60;;;;;;;;;;5049575;28;20087;-68
2022/03/31 02:16:45;;;;;;;8.63;5.40;;;;;;;;;;5047032;28;20064;-69
2022/03/31 02:19:12;;;;;;;8.73;5.40;;;;;;;;;;5050548;28;20037;-71
2022/03/31 02:21:38;;;;;;;8.53;5.23;;;;;;;;;;5050430;28;20029;-70
2022/03/31 02:24:04;;;;;;;9.20;4.97;;;;;;;;;;5053019;28;20029;-70
2022/03/31 02:26:30;;;;;;;8.10;5.50;;;;;;;;;;5051703;28;20021;-72
2022/03/31 02:28:56;;;;;;;8.30;5.40;;;;;;;;;;5053498;28;20036;-70
2022/03/31 02:31:22;;;;;;;9.20;5.33;;;;;;;;;;5051109;28;20397;-70
2022/03/31 02:33:48;;;;;;;11.20;6.13;;;;;;;;;;5050738;28;20036;-68
2022/03/31 02:36:14;;;;;;;11.27;5.47;;;;;;;;;;5052442;28;20448;-69
2022/03/31 02:38:40;;;;;;;9.13;5.80;;;;;;;;;;5054352;28;20431;-69
2022/03/31 02:41:06;;;;;;;7.13;4.90;;;;;;;;;;5052976;28;20401;-70
2022/03/31 02:43:32;;;;;;;7.87;5.03;;;;;;;;;;5054363;28;20029;-69
2022/03/31 02:45:58;;;;;;;8.80;4.97;;;;;;;;;;5049421;28;20045;-69
2022/03/31 02:48:25;;;;;;;11.40;5.67;;;;;;;;;;5055316;28;20105;-69
2022/03/31 02:50:51;;;;;;;9.37;5.20;;;;;;;;;;5056500;28;20040;-70
2022/03/31 02:56:01;;;;;;;7.63;5.07;;;;;;;;;;5046065;28;20412;-69
2022/03/31 02:58:27;;;;;;;9.70;5.10;;;;;;;;;;5046621;28;20108;-71
2022/03/31 03:00:54;;;;;;;7.73;4.50;;;;;;;;;;5048141;28;20508;-69
2022/03/31 03:03:21;;;;;;;8.10;5.00;;;;;;;;;;5049926;28;20090;-69
2022/03/31 03:05:47;;;;;;;8.20;5.10;;;;;;;;;;5052387;28;20171;-69
2022/03/31 03:08:14;;;;;;;9.57;4.80;;;;;;;;;;5052712;28;20108;-69
2022/03/31 03:10:40;;;;;;;8.37;4.27;;;;;;;;;;5049150;28;20056;-68
2022/03/31 03:13:07;;;;;;;6.70;4.40;;;;;;;;;;5053580;28;20037;-69
2022/03/31 03:15:33;;;;;;;6.57;3.93;;;;;;;;;;5053434;28;20434;-71
2022/03/31 03:17:59;;;;;;;8.10;5.00;;;;;;;;;;5050846;28;20119;-69
2022/03/31 03:20:25;;;;;;;11.50;5.30;;;;;;;;;;5053487;28;20428;-71
2022/03/31 03:22:53;;;;;;;9.23;5.70;;;;;;;;;;5053355;28;20044;-69
2022/03/31 03:25:19;;;;;;;9.07;5.00;;;;;;;;;;5051810;28;20053;-70
2022/03/31 03:27:46;;;;;;;8.67;4.47;;;;;;;;;;5052828;28;20101;-69
2022/03/31 03:30:12;;;;;;;8.57;4.73;;;;;;;;;;5051302;28;20028;-70
2022/03/31 03:32:38;;;;;;;7.60;4.23;;;;;;;;;;5050997;28;20029;-71
2022/03/31 03:35:08;;;;;;;9.97;5.50;;;;;;;;;;5054162;28;20031;-71
2022/03/31 03:37:35;;;;;;;6.60;4.43;;;;;;;;;;5051601;28;20033;-71
2022/03/31 03:40:04;;;;;;;8.60;4.90;;;;;;;;;;5051402;28;20063;-70
2022/03/31 03:42:30;;;;;;;7.17;4.23;;;;;;;;;;5051942;28;20414;-70
2022/03/31 03:44:57;;;;;;;8.23;4.70;;;;;;;;;;5054458;28;20025;-70
2022/03/31 03:47:23;;;;;;;5.63;3.27;;;;;;;;;;5051463;28;20441;-70
2022/03/31 03:49:49;;;;;;;9.47;4.40;;;;;;;;;;5053001;28;20029;-70
2022/03/31 03:52:16;;;;;;;7.57;4.03;;;;;;;;;;5051430;28;20473;-69
2022/03/31 03:54:42;;;;;;;8.23;5.00;;;;;;;;;;5051167;28;20037;-69
2022/03/31 03:57:07;;;;;;;7.33;4.27;;;;;;;;;;5051527;28;20062;-70
2022/03/31 03:59:34;;;;;;;7.20;3.73;;;;;;;;;;5052502;28;20029;-70
2022/03/31 04:02:00;;;;;;;5.90;3.80;;;;;;;;;;5047055;28;20021;-70
2022/03/31 04:04:27;;;;;;;8.33;4.63;;;;;;;;;;5053783;28;20049;-70
2022/03/31 04:06:53;;;;;;;6.90;4.27;;;;;;;;;;5051566;28;20033;-71
2022/03/31 04:09:19;;;;;;;6.97;4.30;;;;;;;;;;5051420;28;20107;-69
2022/03/31 04:11:45;;;;;;;7.87;4.23;;;;;;;;;;5050733;28;20033;-69
2022/03/31 04:14:11;;;;;;;4.73;3.23;;;;;;;;;;5051955;28;20040;-70
2022/03/31 04:16:37;;;;;;;7.73;3.77;;;;;;;;;;5051558;28;20138;-71
2022/03/31 04:19:07;;;;;;;7.33;4.53;;;;;;;;;;5055249;28;20069;-71
2022/03/31 04:21:34;;;;;;;7.00;3.57;;;;;;;;;;5045675;28;20037;-70
2022/03/31 04:24:00;;;;;;;6.83;3.90;;;;;;;;;;5054368;28;20441;-71
2022/03/31 04:26:26;;;;;;;6.33;3.50;;;;;;;;;;5054514;28;20025;-70
2022/03/31 04:28:52;;;;;;;9.80;4.20;;;;;;;;;;5054913;28;20025;-70
2022/03/31 04:31:18;;;;;;;6.63;3.80;;;;;;;;;;5054172;28;20029;-71
2022/03/31 04:33:44;;;;;;;9.03;4.57;;;;;;;;;;5048796;28;20033;-69
2022/03/31 04:36:13;;;;;;;6.53;3.80;;;;;;;;;;5060200;28;20036;-70
2022/03/31 04:38:39;;;;;;;5.60;3.00;;;;;;;;;;5060886;28;20033;-70
2022/03/31 04:41:05;;;;;;;5.57;3.70;;;;;;;;;;5057097;28;20041;-70
2022/03/31 04:43:31;;;;;;;9.47;4.80;;;;;;;;;;5052622;28;20029;-69
2022/03/31 04:45:57;;;;;;;6.33;3.97;;;;;;;;;;5047358;28;20082;-69
2022/03/31 04:48:23;;;;;;;7.70;4.50;;;;;;;;;;5052344;28;20028;-69
2022/03/31 04:50:49;;;;;;;6.80;3.70;;;;;;;;;;5050458;28;20040;-70
2022/03/31 04:53:17;;;;;;;5.20;3.00;;;;;;;;;;5051809;28;20044;-68
2022/03/31 04:55:43;;;;;;;6.60;3.53;;;;;;;;;;5043134;28;20032;-75
2022/03/31 04:58:09;;;;;;;7.43;3.50;;;;;;;;;;5047470;28;20492;-74
2022/03/31 05:00:35;;;;;;;4.30;3.30;;;;;;;;;;5051956;28;20071;-71
2022/03/31 05:03:01;;;;;;;6.53;3.67;;;;;;;;;;5054188;28;20472;-77
2022/03/31 05:05:27;;;;;;;7.10;4.20;;;;;;;;;;5050320;28;20111;-74
2022/03/31 05:07:54;;;;;;;6.03;3.90;;;;;;;;;;5053047;28;20029;-76
2022/03/31 05:10:20;;;;;;;5.27;2.70;;;;;;;;;;5051109;28;20124;-73
2022/03/31 05:12:46;;;;;;;9.17;3.60;;;;;;;;;;5042353;28;20481;-75
2022/03/31 05:15:12;;;;;;;8.33;3.60;;;;;;;;;;5048796;28;20041;-75
2022/03/31 05:17:38;;;;;;;6.23;3.00;;;;;;;;;;5048408;28;20033;-76
2022/03/31 05:20:05;;;;;;;8.27;4.00;;;;;;;;;;5044730;28;20031;-76
2022/03/31 05:22:33;;;;;;;8.67;3.60;;;;;;;;;;5052263;28;20028;-74
2022/03/31 05:25:00;;;;;;;8.73;3.20;;;;;;;;;;5054194;28;20075;-76
2022/03/31 05:27:26;;;;;;;7.83;3.70;;;;;;;;;;5053679;28;20029;-72
2022/03/31 05:29:52;;;;;;;5.83;3.30;;;;;;;;;;5053880;28;20028;-75
2022/03/31 05:32:18;;;;;;;7.87;4.17;;;;;;;;;;5050306;28;20047;-76
2022/03/31 05:34:44;;;;;;;5.17;2.90;;;;;;;;;;5054576;28;20029;-72
2022/03/31 05:37:11;;;;;;;6.67;3.67;;;;;;;;;;5056989;28;20488;-74
2022/03/31 05:39:37;;;;;;;9.40;3.67;;;;;;;;;;5074886;28;20025;-76
2022/03/31 05:42:03;;;;;;;6.80;3.57;;;;;;;;;;5057877;28;20056;-76
2022/03/31 05:44:30;;;;;;;5.90;3.33;;;;;;;;;;5053383;28;20113;-73
2022/03/31 05:46:56;;;;;;;7.03;3.57;;;;;;;;;;5061064;28;20029;-76
2022/03/31 05:49:22;;;;;;;6.70;4.07;;;;;;;;;;5064994;28;20033;-73
2022/03/31 05:51:48;;;;;;;8.60;4.23;;;;;;;;;;5062162;28;20041;-72
2022/03/31 05:54:14;;;;;;;8.03;4.30;;;;;;;;;;5072459;28;20342;-74
2022/03/31 05:56:40;;;;;;;6.73;4.00;;;;;;;;;;5067227;28;20048;-74
2022/03/31 05:59:06;;;;;;;8.90;4.97;;;;;;;;;;5066174;28;20420;-73
2022/03/31 06:01:32;;;;;;;9.83;5.30;;;;;;;;;;5053051;28;20434;-75
2022/03/31 06:03:58;;;;;;;6.27;3.63;;;;;;;;;;5049165;28;20021;-73
2022/03/31 06:06:24;;;;;;;6.77;3.90;;;;;;;;;;5061648;28;20040;-73
2022/03/31 06:08:51;;;;;;;6.90;3.50;;;;;;;;;;5064472;28;20041;-73
2022/03/31 06:11:17;;;;;;;5.73;3.60;;;;;;;;;;5055117;22;20053;-69
2022/03/31 06:13:43;;;;;;;6.77;4.20;;;;;;;;;;5033196;28;20057;-69
2022/03/31 06:16:11;;;;;;;6.87;3.73;;;;;;;;;;5032090;28;20048;-69
2022/03/31 06:18:38;;;;;;;7.63;3.90;;;;;;;;;;5032714;28;20044;-69
2022/03/31 06:21:04;;;;;;;7.70;4.07;;;;;;;;;;5034731;28;20037;-65
2022/03/31 06:23:30;;;;;;;6.03;3.97;;;;;;;;;;5038371;28;20064;-65
2022/03/31 06:25:56;;;;;;;7.90;4.00;;;;;;;;;;5034357;28;20154;-66
2022/03/31 06:28:23;;;;;;;6.23;4.07;;;;;;;;;;5032480;28;20413;-65
2022/03/31 06:30:49;;;;;;;5.73;3.43;;;;;;;;;;5040648;28;20037;-65
2022/03/31 06:33:16;;;;;;;5.83;3.90;;;;;;;;;;5043699;28;20036;-65
2022/03/31 06:35:42;;;;;;;8.00;3.20;;;;;;;;;;5036015;28;20033;-66
2022/03/31 06:38:08;;;;;;;11.13;3.93;;;;;;;;;;5037596;28;20034;-65
2022/03/31 06:40:37;;;;;;;7.97;3.67;;;;;;;;;;5039138;28;20044;-67
2022/03/31 06:43:04;;;;;;;8.53;4.70;;;;;;;;;;5038297;28;20037;-67
2022/03/31 06:45:30;;;;;;;7.90;4.10;;;;;;;;;;5042695;28;20030;-68
2022/03/31 06:47:57;;;;;;;6.73;4.10;;;;;;;;;;5039734;28;20032;-67
2022/03/31 06:50:23;;;;;;;6.23;4.07;;;;;;;;;;5041904;28;20036;-66
2022/03/31 06:52:50;;;;;;;7.50;4.70;;;;;;;;;;5051182;28;20162;-66
2022/03/31 06:55:16;;;;;;;6.50;4.87;;;;;;;;;;5050701;28;20478;-66
2022/03/31 06:57:42;;;;;;;6.90;4.50;;;;;;;;;;5044131;28;20044;-66
2022/03/31 07:00:08;;;;;;;7.83;4.40;;;;;;;;;;5049832;28;20117;-67
2022/03/31 07:02:34;;;;;;;5.60;3.77;;;;;;;;;;5035662;28;20112;-67
2022/03/31 07:05:00;;;;;;;9.65;4.30;;;;;;;;;;5042699;28;20037;-66
2022/03/31 07:07:26;;;;;;;6.40;4.53;;;;;;;;;;5036928;28;20036;-65
2022/03/31 07:09:52;;;;;;;6.13;4.27;;;;;;;;;;5040126;28;20033;-66
2022/03/31 07:12:19;;;;;;;8.70;4.57;;;;;;;;;;5041852;28;20095;-66
2022/03/31 07:14:45;;;;;;;7.43;4.40;;;;;;;;;;5040318;28;20152;-67
2022/03/31 07:17:12;;;;;;;6.22;4.22;;;;;;;;;;5039374;28;20033;-66
2022/03/31 07:19:38;;;;;;;8.43;5.38;;;;;;;;;;5039763;28;20034;-68
2022/03/31 07:22:04;;;;;;;7.68;4.82;;;;;;;;;;5036934;28;20108;-67
2022/03/31 07:24:31;;;;;;;10.48;5.70;;;;;;;;;;5035747;28;20083;-66
2022/03/31 07:26:57;;;;;;;8.82;5.88;;;;;;;;;;5036476;28;20117;-68
2022/03/31 07:29:23;;;;;;;11.60;6.00;;;;;;;;;;5035573;28;20049;-66
2022/03/31 07:31:49;;;;;;;16.30;8.10;;;;;;;;;;5035654;28;20492;-67
2022/03/31 07:34:16;;;;;;;68.03;30.00;;;;;;;;;;5036240;28;20461;-67
2022/03/31 07:36:42;;;;;;;11.98;5.40;;;;;;;;;;5035979;28;20041;-67
2022/03/31 07:39:08;;;;;;;8.63;5.40;;;;;;;;;;5036583;28;20033;-67
2022/03/31 07:41:34;;;;;;;9.05;5.25;;;;;;;;;;5037332;28;20049;-66
2022/03/31 07:44:00;;;;;;;8.10;5.05;;;;;;;;;;5051956;28;20037;-66
2022/03/31 07:46:29;;;;;;;10.25;5.55;;;;;;;;;;5036389;28;20048;-65
2022/03/31 07:48:56;;;;;;;18.00;9.45;;;;;;;;;;5032319;28;20053;-66
2022/03/31 07:51:22;;;;;;;8.77;5.13;;;;;;;;;;5034939;28;20025;-67
2022/03/31 07:53:48;;;;;;;7.63;5.43;;;;;;;;;;5035320;28;20025;-67
2022/03/31 07:56:15;;;;;;;10.10;5.05;;;;;;;;;;5035725;28;20041;-67
2022/03/31 07:58:41;;;;;;;10.50;5.03;;;;;;;;;;5035476;28;20040;-66
2022/03/31 08:01:07;;;;;;;9.05;6.05;;;;;;;;;;5044421;28;20408;-67
2022/03/31 08:03:33;;;;;;;7.88;4.85;;;;;;;;;;5040222;28;20516;-66
2022/03/31 08:05:59;;;;;;;6.70;4.72;;;;;;;;;;5047253;28;20102;-66
2022/03/31 08:08:26;;;;;;;11.65;5.00;;;;;;;;;;5038764;28;20075;-66
2022/03/31 08:10:52;;;;;;;6.95;4.78;;;;;;;;;;5038953;28;20041;-66
2022/03/31 08:13:28;;;;;;;9.32;5.55;;;;;;;;;;5043386;28;20036;-66
2022/03/31 08:15:54;;;;;;;8.15;4.93;;;;;;;;;;5045456;28;20110;-66
2022/03/31 08:18:24;;;;;;;10.23;5.35;;;;;;;;;;5051872;28;20401;-67
2022/03/31 08:20:50;;;;;;;9.48;5.32;;;;;;;;;;5041482;28;20319;-65
2022/03/31 08:23:17;;;;;;;8.88;5.55;;;;;;;;;;5042982;28;20547;-67
2022/03/31 08:25:44;;;;;;;9.05;4.85;;;;;;;;;;5035543;28;20116;-65
2022/03/31 08:28:10;;;;;;;8.07;5.47;;;;;;;;;;5032568;28;20057;-65
2022/03/31 08:30:36;;;;;;;7.25;5.95;;;;;;;;;;5033353;28;20029;-67
2022/03/31 08:33:02;;;;;;;11.25;5.20;;;;;;;;;;5036383;28;20033;-66
2022/03/31 08:35:28;;;;;;;12.80;5.72;;;;;;;;;;5046374;28;20025;-65
2022/03/31 08:37:54;;;;;;;9.73;5.28;;;;;;;;;;5044147;28;20396;-67
2022/03/31 08:40:21;;;;;;;8.77;5.13;;;;;;;;;;5034256;28;20083;-66
2022/03/31 08:42:47;;;;;;;7.05;5.20;;;;;;;;;;5035022;28;20037;-66
2022/03/31 08:45:15;;;;;;;9.23;5.63;;;;;;;;;;5050208;28;20608;-65
2022/03/31 08:47:43;;;;;;;9.48;5.32;;;;;;;;;;5039064;28;20392;-66
2022/03/31 08:50:09;;;;;;;8.98;5.15;;;;;;;;;;5031216;28;20498;-65
2022/03/31 08:52:35;;;;;;;10.07;5.43;;;;;;;;;;5033411;28;20060;-66
2022/03/31 08:55:01;;;;;;;9.63;6.10;;;;;;;;;;5044663;28;20021;-66
2022/03/31 08:57:38;;;;;;;9.70;5.47;;;;;;;;;;5046201;28;20091;-64
2022/03/31 09:00:04;;;;;;;8.88;5.88;;;;;;;;;;5048862;28;20048;-65
2022/03/31 09:02:30;;;;;;;10.95;5.90;;;;;;;;;;5036393;28;20439;-64
2022/03/31 09:05:12;;;;;;;7.88;5.22;;;;;;;;;;5039850;28;20033;-64
2022/03/31 09:07:58;;;;;;;9.02;5.88;;;;;;;;;;5051049;28;20385;-66
2022/03/31 09:10:27;;;;;;;10.55;6.07;;;;;;;;;;5048363;28;20120;-67
2022/03/31 09:12:53;;;;;;;8.35;5.78;;;;;;;;;;5036877;28;20029;-65
2022/03/31 09:15:20;;;;;;;14.82;6.70;;;;;;;;;;5039800;28;20036;-66
2022/03/31 09:17:45;;;;;;;8.65;5.60;;;;;;;;;;5037787;28;20033;-66
2022/03/31 09:20:11;;;;;;;12.43;6.35;;;;;;;;;;5040851;28;20083;-66
2022/03/31 09:22:45;;;;;;;8.20;5.65;;;;;;;;;;5048702;28;20025;-66
2022/03/31 09:25:11;;;;;;;9.15;5.82;;;;;;;;;;5054386;28;20484;-65
2022/03/31 09:27:37;;;;;;;9.05;5.90;;;;;;;;;;5055420;28;20092;-64
2022/03/31 09:30:07;;;;;;;11.65;5.30;;;;;;;;;;5042939;28;20048;-66
2022/03/31 09:32:33;;;;;;;9.38;5.70;;;;;;;;;;5044067;28;20033;-66
2022/03/31 09:35:08;;;;;;;11.98;6.53;;;;;;;;;;5048972;28;20029;-65
2022/03/31 09:37:34;;;;;;;8.27;6.05;;;;;;;;;;5039327;28;20037;-67
2022/03/31 09:40:00;;;;;;;12.93;8.45;;;;;;;;;;5042993;28;20108;-67
2022/03/31 09:42:26;;;;;;;10.27;5.65;;;;;;;;;;5040364;28;20029;-65
2022/03/31 09:44:59;;;;;;;12.15;5.05;;;;;;;;;;5056913;28;20553;-65
2022/03/31 09:47:26;;;;;;;9.95;5.88;;;;;;;;;;5059837;28;20489;-65
2022/03/31 09:49:54;;;;;;;10.13;6.55;;;;;;;;;;5043477;28;20025;-66
2022/03/31 09:52:20;;;;;;;8.38;5.63;;;;;;;;;;5042740;28;20029;-66
2022/03/31 09:54:48;;;;;;;11.10;6.53;;;;;;;;;;5042273;28;20034;-66
2022/03/31 09:57:15;;;;;;;13.68;6.40;;;;;;;;;;5033534;28;20085;-66
2022/03/31 09:59:44;;;;;;;11.50;6.95;;;;;;;;;;5035362;28;20578;-66
2022/03/31 10:02:10;;;;;;;11.65;6.05;;;;;;;;;;5039241;28;20030;-65
2022/03/31 10:04:36;;;;;;;9.10;6.15;;;;;;;;;;5031808;28;20815;-69
2022/03/31 10:07:03;;;;;;;11.13;7.68;;;;;;;;;;5036952;28;20143;-69
2022/03/31 10:09:31;;;;;;;9.32;6.68;;;;;;;;;;5044022;28;20107;-68
2022/03/31 10:12:00;;;;;;;11.30;6.78;;;;;;;;;;5051476;28;20053;-68
2022/03/31 10:14:30;;;;;;;10.45;6.45;;;;;;;;;;5053688;28;20093;-66
2022/03/31 10:16:57;;;;;;;10.57;5.95;;;;;;;;;;5048277;28;20041;-67
2022/03/31 10:19:28;;;;;;;11.25;6.32;;;;;;;;;;5041734;28;20116;-66
2022/03/31 10:25:09;;;;;;;10.40;6.85;;;;;;;;;;5047382;28;20032;-70
2022/03/31 10:27:36;;;;;;;10.63;6.20;;;;;;;;;;5040506;28;20075;-67
2022/03/31 10:30:16;;;;;;;9.32;6.57;;;;;;;;;;5045606;28;20079;-68
2022/03/31 10:33:01;;;;;;;10.48;6.22;;;;;;;;;;5030373;28;20498;-68
2022/03/31 10:35:28;;;;;;;12.55;6.55;;;;;;;;;;5033003;28;20033;-67
2022/03/31 10:37:55;;;;;;;10.88;7.53;;;;;;;;;;5037806;28;20033;-67
2022/03/31 10:40:34;;;;;;;10.05;7.03;;;;;;;;;;5041602;28;20478;-66
2022/03/31 10:43:00;;;;;;;8.55;5.60;;;;;;;;;;5042283;28;20623;-66
2022/03/31 10:45:40;;;;;;;12.35;6.75;;;;;;;;;;5056427;28;20029;-67
2022/03/31 10:48:32;;;;;;;8.70;6.20;;;;;;;;;;5036034;28;20049;-67
2022/03/31 10:51:06;;;;;;;10.40;6.82;;;;;;;;;;5027346;28;20045;-67
2022/03/31 10:53:32;;;;;;;9.23;6.15;;;;;;;;;;5044217;28;20073;-66
2022/03/31 10:55:59;;;;;;;8.95;5.70;;;;;;;;;;5049903;28;20489;-66
2022/03/31 10:58:26;;;;;;;10.32;6.53;;;;;;;;;;5053430;28;20029;-66
2022/03/31 11:00:53;;;;;;;16.20;6.70;;;;;;;;;;5050547;28;20063;-67
2022/03/31 11:03:19;;;;;;;12.13;7.78;;;;;;;;;;5050297;28;20053;-66
2022/03/31 11:05:46;;;;;;;9.27;6.55;;;;;;;;;;5059541;28;20029;-65
2022/03/31 11:08:17;;;;;;;11.98;5.93;;;;;;;;;;5059301;28;20024;-66
2022/03/31 11:10:47;;;;;;;9.80;5.88;;;6.80;46.70;;;;;;5060439;28;20372;-66
2022/03/31 11:13:16;;;;;;;12.52;7.28;;;;;;;;;;5035664;28;20042;-65
2022/03/31 11:15:44;;;;;;;12.50;6.68;;;;;;;;;;5052923;28;20036;-65
2022/03/31 11:18:10;;;;;;;12.82;6.55;;;;;;;;;;5047172;28;20030;-66
2022/03/31 11:20:36;;;;;;;11.77;6.20;;;;;;;;;;5043725;28;20040;-67
2022/03/31 11:23:06;;;;;;;12.25;6.75;;;;;;;;;;5047570;28;20037;-66
2022/03/31 11:25:33;;;;;;;7.65;5.35;;;;;;;;;;5049103;28;20382;-67
2022/03/31 11:28:08;;;;;;;10.40;6.15;;;;;;;;;;5039214;28;20393;-66
2022/03/31 11:30:34;;;;;;;8.05;5.78;;;;;;;;;;5039903;28;20087;-67
2022/03/31 11:33:00;;;;;;;11.05;6.00;;;;;;;;;;5054840;28;20432;-67
2022/03/31 11:35:27;;;;;;;12.52;7.68;;;;;;;;;;5042384;28;20079;-66
2022/03/31 11:37:54;;;;;;;10.07;6.03;;;;;;;;;;5053812;28;20025;-67
2022/03/31 11:40:21;;;;;;;10.27;6.07;;;;;;;;;;5045972;28;20055;-68
2022/03/31 11:42:48;;;;;;;11.63;7.13;;;;;;;;;;5048896;28;20033;-67
2022/03/31 11:45:28;;;;;;;9.55;6.35;;;;;;;;;;5047791;28;20029;-67
2022/03/31 11:47:55;;;;;;;11.15;6.68;;;;;;;;;;5028865;28;20162;-67
2022/03/31 11:50:21;;;;;;;13.15;6.47;;;;;;;;;;5045110;28;20041;-65
2022/03/31 11:52:48;;;;;;;11.27;7.05;;;;;;;;;;5044235;28;20037;-68
2022/03/31 11:55:15;;;;;;;12.68;6.22;;;;;;;;;;5054112;28;20033;-67
2022/03/31 11:57:50;;;;;;;14.60;7.28;;;;;;;;;;5049961;28;20048;-66
2022/03/31 12:00:16;;;;;;;11.10;7.10;;;7.30;46.40;;;;;;5057340;28;20041;-66
2022/03/31 12:02:43;;;;;;;11.60;7.15;;;;;;;;;;5057628;28;20117;-66
2022/03/31 12:05:14;;;;;;;9.60;6.50;;;;;;;;;;5056577;28;20056;-68
2022/03/31 12:07:40;;;;;;;11.40;6.63;;;;;;;;;;5039147;28;20473;-67
2022/03/31 12:10:07;;;;;;;9.30;6.72;;;;;;;;;;5058672;22;20049;-72
2022/03/31 12:12:33;;;;;;;12.38;6.68;;;;;;;;;;5054188;28;20029;-74
2022/03/31 12:14:59;;;;;;;10.52;6.90;;;;;;;;;;5048078;28;20103;-73
2022/03/31 12:17:25;;;;;;;10.52;6.97;;;;;;;;;;5050764;28;20393;-73
2022/03/31 12:19:51;;;;;;;9.13;6.90;;;;;;;;;;5043462;28;20560;-72
2022/03/31 12:22:17;;;;;;;11.05;6.85;;;;;;;;;;5043909;28;20033;-73
2022/03/31 12:24:50;;;;;;;10.30;7.00;;;;;;;;;;5039108;28;20358;-74
2022/03/31 12:27:17;;;;;;;21.00;8.43;;;;;;;;;;5045437;28;20433;-74
2022/03/31 12:29:43;;;;;;;8.95;5.47;;;;;;;;;;5053518;28;20030;-75
2022/03/31 12:32:13;;;;;;;11.80;7.07;;;;;;;;;;5037706;28;20040;-75
2022/03/31 12:34:40;;;;;;;8.32;5.55;;;;;;;;;;5049736;28;20044;-74
2022/03/31 12:37:07;;;;;;;13.13;7.55;;;;;;;;;;5035585;28;20030;-74
2022/03/31 12:39:40;;;;;;;11.50;6.90;;;;;;;;;;5038510;28;20029;-74
2022/03/31 12:42:07;;;;;;;10.40;6.70;;;;;;;;;;5037636;28;20379;-74
2022/03/31 12:44:38;;;;;;;17.70;7.05;;;;;;;;;;5034791;28;20064;-73
2022/03/31 12:47:05;;;;;;;14.10;7.20;;;;;;;;;;5035018;28;20025;-72
2022/03/31 12:49:35;;;;;;;10.40;6.47;;;;;;;;;;5050856;28;20030;-71
2022/03/31 12:52:03;;;;;;;12.45;6.50;;;;;;;;;;5042367;28;20108;-71
2022/03/31 12:54:35;;;;;;;13.15;6.95;;;;;;;;;;5039040;28;20036;-73
2022/03/31 12:57:05;;;;;;;8.48;5.47;;;;;;;;;;5035015;28;20044;-70
2022/03/31 12:59:33;;;;;;;15.55;6.85;;;;;;;;;;5033070;28;20039;-73
2022/03/31 13:02:07;;;;;;;8.63;5.60;;;;;;;;;;5043060;28;20124;-71
2022/03/31 13:04:34;;;;;;;10.88;7.20;;;;;;;;;;5052264;28;20041;-72
2022/03/31 13:07:00;;;;;;;10.88;6.47;;;;;;;;;;5036615;28;20033;-73
2022/03/31 13:09:26;;;;;;;9.32;5.43;;;;;;;;;;5042036;28;20033;-72
2022/03/31 13:11:56;;;;;;;10.02;5.90;;;;;;;;;;5038884;28;20040;-72
2022/03/31 13:14:22;;;;;;;8.82;6.10;;;;;;;;;;5040917;28;20033;-71
2022/03/31 13:16:48;;;;;;;12.35;5.70;;;;;;;;;;5047276;28;20062;-71
2022/03/31 13:19:15;;;;;;;7.88;5.10;;;;;;;;;;5041166;28;20086;-72
2022/03/31 13:21:41;;;;;;;9.20;5.25;;;;;;;;;;5038377;28;20022;-72
2022/03/31 13:24:07;;;;;;;6.72;4.72;;;;;;;;;;5020236;28;20085;-69
2022/03/31 13:26:34;;;;;;;8.75;4.85;;;;;;;;;;5027374;28;20132;-71
2022/03/31 13:29:04;;;;;;;9.40;5.57;;;;;;;;;;5044116;28;20481;-71
2022/03/31 13:31:31;;;;;;;8.60;4.88;;;;;;;;;;5045419;28;20087;-72
2022/03/31 13:33:57;;;;;;;8.02;5.28;;;;;;;;;;5053105;28;20112;-72
2022/03/31 13:36:23;;;;;;;8.32;5.30;;;;;;;;;;5034809;28;20064;-71
2022/03/31 13:38:48;;;;;;;8.45;4.82;;;;;;;;;;5031854;28;20591;-71
2022/03/31 13:41:14;;;;;;;8.27;4.72;;;;;;;;;;5028053;28;20116;-72
2022/03/31 13:43:40;;;;;;;9.25;5.07;;;;;;;;;;5039239;28;20029;-73
2022/03/31 13:46:06;;;;;;;8.77;5.90;;;;;;;;;;5029765;28;20030;-72
2022/03/31 13:48:32;;;;;;;8.77;6.05;;;;;;;;;;5036869;28;20025;-72
2022/03/31 13:50:59;;;;;;;9.70;5.97;;;;;;;;;;5036683;28;20068;-71
2022/03/31 13:53:44;;;;;;;8.13;4.88;;;;;;;;;;5048832;28;20047;-73
2022/03/31 13:56:11;;;;;;;13.25;4.78;;;;;;;;;;5036339;28;20045;-73
2022/03/31 14:01:22;;;;;;;6.50;3.60;;;;;;;;;;5033198;28;20428;-73
2022/03/31 14:03:49;;;;;;;6.05;3.92;;;;;;;;;;5038620;28;20367;-73
2022/03/31 14:06:16;;;;;;;6.40;3.78;;;;;;;;;;5034206;28;20025;-73
2022/03/31 14:08:42;;;;;;;8.27;4.47;;;;;;;;;;5033398;28;20045;-73
2022/03/31 14:11:09;;;;;;;8.75;4.68;;;;;;;;;;5026983;28;20038;-72
2022/03/31 14:13:35;;;;;;;10.45;5.00;;;;;;;;;;5023976;28;20033;-72
2022/03/31 14:16:03;;;;;;;7.85;4.22;;;;;;;;;;5029877;28;20052;-73
2022/03/31 14:18:30;;;;;;;5.85;3.83;;;;;;;;;;5031958;28;20553;-72
2022/03/31 14:20:56;;;;;;;8.73;4.13;;;;;;;;;;5020194;28;20398;-72
2022/03/31 14:23:22;;;;;;;8.82;4.32;;;;;;;;;;5033539;28;20026;-72
2022/03/31 14:25:48;;;;;;;6.13;3.70;;;;;;;;;;5030001;28;20121;-71
2022/03/31 14:28:14;;;;;;;8.52;3.30;;;;;;;;;;5032014;28;20068;-72
2022/03/31 14:30:42;;;;;;;4.80;3.42;;;;;;;;;;5032847;28;20489;-73
2022/03/31 14:33:08;;;;;;;6.53;3.40;;;;;;;;;;5032065;28;20516;-72
2022/03/31 14:35:34;;;;;;;5.20;3.50;;;;;;;;;;5031795;28;20488;-75
2022/03/31 14:38:01;;;;;;;7.47;4.03;;;;;;;;;;5033552;28;20393;-73
2022/03/31 14:40:27;;;;;;;6.38;3.63;;;;;;;;;;5033126;28;20026;-74
2022/03/31 14:42:54;;;;;;;5.35;3.60;;;;;;;;;;5033112;28;20056;-73
2022/03/31 14:45:20;;;;;;;6.88;3.55;;;;;;;;;;5032993;28;20371;-75
2022/03/31 14:47:46;;;;;;;7.20;4.35;;;;;;;;;;5031678;28;20113;-70